sensor_id;sensor_type;location;lat;lon;timestamp;temperature;humidity
20141;DHT22;10231;47.702;9.826;2022-09-27T00:01:36;10.90;99.90
20141;DHT22;10231;47.702;9.826;2022-09-27T00:04:02;10.90;99.90
20141;DHT22;10231;47.702;9.826;2022-09-27T00:06:30;10.90;99.90
20141;DHT22;10231;47.702;9.826;2022-09-27T00:08:56;10.90;99.90
20141;DHT22;10231;47.702;9.826;2022-09-27T00:11:28;10.80;99.90
20141;DHT22;10231;47.702;9.826;2022-09-27T00:13:55;10.80;99.90
20141;DHT22;10231;47.702;9.826;2022-09-27T00:16:30;10.70;99.90
20141;DHT22;10231;47.702;9.826;2022-09-27T00:19:01;10.70;99.90
20141;DHT22;10231;47.702;9.826;2022-09-27T00:21:27;10.80;99.90
20141;DHT22;10231;47.702;9.826;2022-09-27T00:23:55;10.60;99.90
20141;DHT22;10231;47.702;9.826;2022-09-27T00:26:21;10.50;99.90
20141;DHT22;10231;47.702;9.826;2022-09-27T00:28:47;10.60;99.90
20141;DHT22;10231;47.702;9.826;2022-09-27T00:31:27;10.60;99.90
20141;DHT22;10231;47.702;9.826;2022-09-27T00:33:57;10.50;99.90
20141;DHT22;10231;47.702;9.826;2022-09-27T00:36:24;10.40;99.90
20141;DHT22;10231;47.702;9.826;2022-09-27T00:38:50;10.30;99.90
20141;DHT22;10231;47.702;9.826;2022-09-27T00:41:19;10.30;99.90
20141;DHT22;10231;47.702;9.826;2022-09-27T00:43:49;10.40;99.90
20141;DHT22;10231;47.702;9.826;2022-09-27T00:46:38;10.40;99.90
20141;DHT22;10231;47.702;9.826;2022-09-27T00:49:27;10.40;99.90
20141;DHT22;10231;47.702;9.826;2022-09-27T00:52:04;10.50;99.90
20141;DHT22;10231;47.702;9.826;2022-09-27T00:54:33;10.50;99.90
20141;DHT22;10231;47.702;9.826;2022-09-27T00:57:01;10.50;99.90
20141;DHT22;10231;47.702;9.826;2022-09-27T00:59:29;10.50;99.90
20141;DHT22;10231;47.702;9.826;2022-09-27T01:01:57;10.50;99.90
20141;DHT22;10231;47.702;9.826;2022-09-27T01:04:26;10.50;99.90
20141;DHT22;10231;47.702;9.826;2022-09-27T01:06:52;10.50;99.90
20141;DHT22;10231;47.702;9.826;2022-09-27T01:09:17;10.60;99.90
20141;DHT22;10231;47.702;9.826;2022-09-27T01:19:48;10.60;99.90
20141;DHT22;10231;47.702;9.826;2022-09-27T01:30:52;10.50;99.90
20141;DHT22;10231;47.702;9.826;2022-09-27T01:33:30;10.50;99.90
20141;DHT22;10231;47.702;9.826;2022-09-27T01:42:02;10.50;99.90
20141;DHT22;10231;47.702;9.826;2022-09-27T01:44:50;10.50;99.90
20141;DHT22;10231;47.702;9.826;2022-09-27T01:47:18;10.40;99.90
20141;DHT22;10231;47.702;9.826;2022-09-27T01:50:10;10.40;99.90
20141;DHT22;10231;47.702;9.826;2022-09-27T01:52:40;10.40;99.90
20141;DHT22;10231;47.702;9.826;2022-09-27T01:55:10;10.40;99.90
20141;DHT22;10231;47.702;9.826;2022-09-27T01:57:40;10.40;99.90
20141;DHT22;10231;47.702;9.826;2022-09-27T02:00:09;10.40;99.90
20141;DHT22;10231;47.702;9.826;2022-09-27T02:02:39;10.40;99.90
20141;DHT22;10231;47.702;9.826;2022-09-27T02:05:07;10.30;99.90
20141;DHT22;10231;47.702;9.826;2022-09-27T02:07:51;10.20;99.90
20141;DHT22;10231;47.702;9.826;2022-09-27T02:10:24;10.30;99.90
20141;DHT22;10231;47.702;9.826;2022-09-27T02:13:00;10.30;99.90
20141;DHT22;10231;47.702;9.826;2022-09-27T02:15:29;10.20;99.90
20141;DHT22;10231;47.702;9.826;2022-09-27T02:18:01;10.30;99.90
20141;DHT22;10231;47.702;9.826;2022-09-27T02:20:36;10.30;99.90
20141;DHT22;10231;47.702;9.826;2022-09-27T02:23:22;10.30;99.90
20141;DHT22;10231;47.702;9.826;2022-09-27T02:25:58;10.30;99.90
20141;DHT22;10231;47.702;9.826;2022-09-27T02:28:41;10.30;99.90
20141;DHT22;10231;47.702;9.826;2022-09-27T02:31:09;10.30;99.90
20141;DHT22;10231;47.702;9.826;2022-09-27T02:33:42;10.30;99.90
20141;DHT22;10231;47.702;9.826;2022-09-27T02:36:09;10.30;99.90
20141;DHT22;10231;47.702;9.826;2022-09-27T02:38:36;10.20;99.90
20141;DHT22;10231;47.702;9.826;2022-09-27T02:41:02;10.20;99.90
20141;DHT22;10231;47.702;9.826;2022-09-27T02:43:30;10.20;99.90
20141;DHT22;10231;47.702;9.826;2022-09-27T02:46:38;10.40;99.90
20141;DHT22;10231;47.702;9.826;2022-09-27T02:49:46;10.40;99.90
20141;DHT22;10231;47.702;9.826;2022-09-27T02:54:55;10.30;99.90
20141;DHT22;10231;47.702;9.826;2022-09-27T02:57:46;10.40;99.90
20141;DHT22;10231;47.702;9.826;2022-09-27T03:00:19;10.40;99.90
20141;DHT22;10231;47.702;9.826;2022-09-27T03:02:54;10.30;99.90
20141;DHT22;10231;47.702;9.826;2022-09-27T03:05:26;10.20;99.90
20141;DHT22;10231;47.702;9.826;2022-09-27T03:07:53;10.30;99.90
20141;DHT22;10231;47.702;9.826;2022-09-27T03:10:23;10.40;99.90
20141;DHT22;10231;47.702;9.826;2022-09-27T03:12:49;10.30;99.90
20141;DHT22;10231;47.702;9.826;2022-09-27T03:15:15;10.30;99.90
20141;DHT22;10231;47.702;9.826;2022-09-27T03:17:40;10.20;99.90
20141;DHT22;10231;47.702;9.826;2022-09-27T03:20:06;10.10;99.90
20141;DHT22;10231;47.702;9.826;2022-09-27T03:22:33;10.10;99.90
20141;DHT22;10231;47.702;9.826;2022-09-27T03:24:59;10.00;99.90
20141;DHT22;10231;47.702;9.826;2022-09-27T03:27:25;9.90;99.90
20141;DHT22;10231;47.702;9.826;2022-09-27T03:29:50;9.80;99.90
20141;DHT22;10231;47.702;9.826;2022-09-27T03:32:16;9.80;99.90
20141;DHT22;10231;47.702;9.826;2022-09-27T03:34:42;9.80;99.90
20141;DHT22;10231;47.702;9.826;2022-09-27T03:37:07;9.80;99.90
20141;DHT22;10231;47.702;9.826;2022-09-27T03:39:33;9.80;99.90
20141;DHT22;10231;47.702;9.826;2022-09-27T03:41:59;9.80;99.90
20141;DHT22;10231;47.702;9.826;2022-09-27T03:44:24;9.80;99.90
20141;DHT22;10231;47.702;9.826;2022-09-27T03:46:50;9.80;99.90
20141;DHT22;10231;47.702;9.826;2022-09-27T03:49:15;9.90;99.90
20141;DHT22;10231;47.702;9.826;2022-09-27T03:51:41;10.00;99.90
20141;DHT22;10231;47.702;9.826;2022-09-27T03:54:08;9.90;99.90
20141;DHT22;10231;47.702;9.826;2022-09-27T03:56:33;9.90;99.90
20141;DHT22;10231;47.702;9.826;2022-09-27T03:58:59;9.90;99.90
20141;DHT22;10231;47.702;9.826;2022-09-27T04:01:25;9.90;99.90
20141;DHT22;10231;47.702;9.826;2022-09-27T04:03:52;9.90;99.90
20141;DHT22;10231;47.702;9.826;2022-09-27T04:06:18;9.90;99.90
20141;DHT22;10231;47.702;9.826;2022-09-27T04:08:44;9.80;99.90
20141;DHT22;10231;47.702;9.826;2022-09-27T04:11:10;9.80;99.90
20141;DHT22;10231;47.702;9.826;2022-09-27T04:13:36;9.80;99.90
20141;DHT22;10231;47.702;9.826;2022-09-27T04:16:02;9.90;99.90
20141;DHT22;10231;47.702;9.826;2022-09-27T04:18:27;9.90;99.90
20141;DHT22;10231;47.702;9.826;2022-09-27T04:20:53;9.90;99.90
20141;DHT22;10231;47.702;9.826;2022-09-27T04:23:19;9.90;99.90
20141;DHT22;10231;47.702;9.826;2022-09-27T04:25:45;9.80;99.90
20141;DHT22;10231;47.702;9.826;2022-09-27T04:28:11;9.80;99.90
20141;DHT22;10231;47.702;9.826;2022-09-27T04:30:37;9.80;99.90
20141;DHT22;10231;47.702;9.826;2022-09-27T04:33:03;9.80;99.90
20141;DHT22;10231;47.702;9.826;2022-09-27T04:35:28;9.80;99.90
20141;DHT22;10231;47.702;9.826;2022-09-27T04:38:12;9.80;99.90
20141;DHT22;10231;47.702;9.826;2022-09-27T04:40:38;9.80;99.90
20141;DHT22;10231;47.702;9.826;2022-09-27T04:43:04;9.80;99.90
20141;DHT22;10231;47.702;9.826;2022-09-27T04:45:30;9.80;99.90
20141;DHT22;10231;47.702;9.826;2022-09-27T04:47:55;9.80;99.90
20141;DHT22;10231;47.702;9.826;2022-09-27T04:50:21;9.70;99.90
20141;DHT22;10231;47.702;9.826;2022-09-27T04:52:51;9.80;99.90
20141;DHT22;10231;47.702;9.826;2022-09-27T04:55:17;9.80;99.90
20141;DHT22;10231;47.702;9.826;2022-09-27T04:57:43;9.70;99.90
20141;DHT22;10231;47.702;9.826;2022-09-27T05:00:09;9.70;99.90
20141;DHT22;10231;47.702;9.826;2022-09-27T05:02:35;9.60;99.90
20141;DHT22;10231;47.702;9.826;2022-09-27T05:05:01;9.70;99.90
20141;DHT22;10231;47.702;9.826;2022-09-27T05:07:27;9.70;99.90
20141;DHT22;10231;47.702;9.826;2022-09-27T05:09:53;9.60;99.90
20141;DHT22;10231;47.702;9.826;2022-09-27T05:12:19;9.60;99.90
20141;DHT22;10231;47.702;9.826;2022-09-27T05:14:45;9.60;99.90
20141;DHT22;10231;47.702;9.826;2022-09-27T05:17:10;9.70;99.90
20141;DHT22;10231;47.702;9.826;2022-09-27T05:19:36;9.70;99.90
20141;DHT22;10231;47.702;9.826;2022-09-27T05:22:04;9.70;99.90
20141;DHT22;10231;47.702;9.826;2022-09-27T05:24:30;9.70;99.90
20141;DHT22;10231;47.702;9.826;2022-09-27T05:26:57;9.60;99.90
20141;DHT22;10231;47.702;9.826;2022-09-27T05:29:23;9.60;99.90
20141;DHT22;10231;47.702;9.826;2022-09-27T05:31:49;9.70;99.90
20141;DHT22;10231;47.702;9.826;2022-09-27T05:34:15;9.60;99.90
20141;DHT22;10231;47.702;9.826;2022-09-27T05:36:40;9.60;99.90
20141;DHT22;10231;47.702;9.826;2022-09-27T05:39:06;9.60;99.90
20141;DHT22;10231;47.702;9.826;2022-09-27T05:41:32;9.50;99.90
20141;DHT22;10231;47.702;9.826;2022-09-27T05:43:58;9.50;99.90
20141;DHT22;10231;47.702;9.826;2022-09-27T05:46:24;9.50;99.90
20141;DHT22;10231;47.702;9.826;2022-09-27T05:48:50;9.40;99.90
20141;DHT22;10231;47.702;9.826;2022-09-27T05:51:15;9.50;99.90
20141;DHT22;10231;47.702;9.826;2022-09-27T05:53:41;9.50;99.90
20141;DHT22;10231;47.702;9.826;2022-09-27T05:56:07;9.50;99.90
20141;DHT22;10231;47.702;9.826;2022-09-27T05:58:32;9.50;99.90
20141;DHT22;10231;47.702;9.826;2022-09-27T06:00:59;9.50;99.90
20141;DHT22;10231;47.702;9.826;2022-09-27T06:03:24;9.50;99.90
20141;DHT22;10231;47.702;9.826;2022-09-27T06:05:50;9.40;99.90
20141;DHT22;10231;47.702;9.826;2022-09-27T06:08:16;9.30;99.90
20141;DHT22;10231;47.702;9.826;2022-09-27T06:10:42;9.30;99.90
20141;DHT22;10231;47.702;9.826;2022-09-27T06:13:11;9.30;99.90
20141;DHT22;10231;47.702;9.826;2022-09-27T06:15:39;9.30;99.90
20141;DHT22;10231;47.702;9.826;2022-09-27T06:18:13;9.50;99.90
20141;DHT22;10231;47.702;9.826;2022-09-27T06:20:40;9.30;99.90
20141;DHT22;10231;47.702;9.826;2022-09-27T06:23:16;9.40;99.90
20141;DHT22;10231;47.702;9.826;2022-09-27T06:25:43;9.40;99.90
20141;DHT22;10231;47.702;9.826;2022-09-27T06:28:09;9.40;99.90
20141;DHT22;10231;47.702;9.826;2022-09-27T06:30:38;9.30;99.90
20141;DHT22;10231;47.702;9.826;2022-09-27T06:33:04;9.30;99.90
20141;DHT22;10231;47.702;9.826;2022-09-27T06:35:30;9.40;99.90
20141;DHT22;10231;47.702;9.826;2022-09-27T06:37:56;9.40;99.90
20141;DHT22;10231;47.702;9.826;2022-09-27T06:40:22;9.40;99.90
20141;DHT22;10231;47.702;9.826;2022-09-27T06:42:51;9.40;99.90
20141;DHT22;10231;47.702;9.826;2022-09-27T06:45:17;9.50;99.90
20141;DHT22;10231;47.702;9.826;2022-09-27T06:47:43;9.40;99.90
20141;DHT22;10231;47.702;9.826;2022-09-27T06:50:09;9.40;99.90
20141;DHT22;10231;47.702;9.826;2022-09-27T06:52:35;9.40;99.90
20141;DHT22;10231;47.702;9.826;2022-09-27T06:55:02;9.40;99.90
20141;DHT22;10231;47.702;9.826;2022-09-27T06:57:28;9.40;99.90
20141;DHT22;10231;47.702;9.826;2022-09-27T07:00:13;9.40;99.90
20141;DHT22;10231;47.702;9.826;2022-09-27T07:02:55;9.30;99.90
20141;DHT22;10231;47.702;9.826;2022-09-27T07:05:28;9.40;99.90
20141;DHT22;10231;47.702;9.826;2022-09-27T07:07:55;9.30;99.90
20141;DHT22;10231;47.702;9.826;2022-09-27T07:10:26;9.30;99.90
20141;DHT22;10231;47.702;9.826;2022-09-27T07:12:52;9.10;99.90
20141;DHT22;10231;47.702;9.826;2022-09-27T07:15:18;9.10;99.90
20141;DHT22;10231;47.702;9.826;2022-09-27T07:17:46;9.10;99.90
20141;DHT22;10231;47.702;9.826;2022-09-27T07:20:12;9.20;99.90
20141;DHT22;10231;47.702;9.826;2022-09-27T07:22:41;9.10;99.90
20141;DHT22;10231;47.702;9.826;2022-09-27T07:25:10;9.20;99.90
20141;DHT22;10231;47.702;9.826;2022-09-27T07:27:37;9.30;99.90
20141;DHT22;10231;47.702;9.826;2022-09-27T07:30:05;9.20;99.90
20141;DHT22;10231;47.702;9.826;2022-09-27T07:32:31;9.30;99.90
20141;DHT22;10231;47.702;9.826;2022-09-27T07:34:57;9.30;99.90
20141;DHT22;10231;47.702;9.826;2022-09-27T07:37:22;9.30;99.90
20141;DHT22;10231;47.702;9.826;2022-09-27T07:39:48;9.30;99.90
20141;DHT22;10231;47.702;9.826;2022-09-27T07:42:14;9.30;99.90
20141;DHT22;10231;47.702;9.826;2022-09-27T07:44:39;9.30;99.90
20141;DHT22;10231;47.702;9.826;2022-09-27T07:47:06;9.30;99.90
20141;DHT22;10231;47.702;9.826;2022-09-27T07:49:32;9.40;99.90
20141;DHT22;10231;47.702;9.826;2022-09-27T07:51:57;9.30;99.90
20141;DHT22;10231;47.702;9.826;2022-09-27T07:54:23;9.30;99.90
20141;DHT22;10231;47.702;9.826;2022-09-27T07:56:48;9.30;99.90
20141;DHT22;10231;47.702;9.826;2022-09-27T07:59:14;9.20;99.90
20141;DHT22;10231;47.702;9.826;2022-09-27T08:01:39;9.10;99.90
20141;DHT22;10231;47.702;9.826;2022-09-27T08:04:05;9.10;99.90
20141;DHT22;10231;47.702;9.826;2022-09-27T08:06:30;9.00;99.90
20141;DHT22;10231;47.702;9.826;2022-09-27T08:08:56;8.90;99.90
20141;DHT22;10231;47.702;9.826;2022-09-27T08:11:24;9.00;99.90
20141;DHT22;10231;47.702;9.826;2022-09-27T08:13:49;9.00;99.90
20141;DHT22;10231;47.702;9.826;2022-09-27T08:16:17;9.00;99.90
20141;DHT22;10231;47.702;9.826;2022-09-27T08:18:43;8.90;99.90
20141;DHT22;10231;47.702;9.826;2022-09-27T08:21:08;8.80;99.90
20141;DHT22;10231;47.702;9.826;2022-09-27T08:23:34;8.80;99.90
20141;DHT22;10231;47.702;9.826;2022-09-27T08:26:01;8.70;99.90
20141;DHT22;10231;47.702;9.826;2022-09-27T08:28:27;8.60;99.90
20141;DHT22;10231;47.702;9.826;2022-09-27T08:30:53;8.40;99.90
20141;DHT22;10231;47.702;9.826;2022-09-27T08:33:19;8.40;99.90
20141;DHT22;10231;47.702;9.826;2022-09-27T08:35:44;8.40;99.90
20141;DHT22;10231;47.702;9.826;2022-09-27T08:38:10;8.30;99.90
20141;DHT22;10231;47.702;9.826;2022-09-27T08:47:34;8.20;99.90
20141;DHT22;10231;47.702;9.826;2022-09-27T08:50:07;8.00;99.90
20141;DHT22;10231;47.702;9.826;2022-09-27T08:52:44;8.00;99.90
20141;DHT22;10231;47.702;9.826;2022-09-27T08:58:40;7.90;99.90
20141;DHT22;10231;47.702;9.826;2022-09-27T09:01:14;8.00;99.90
20141;DHT22;10231;47.702;9.826;2022-09-27T09:03:49;7.90;99.90
20141;DHT22;10231;47.702;9.826;2022-09-27T09:08:51;8.10;99.90
20141;DHT22;10231;47.702;9.826;2022-09-27T09:22:51;8.50;99.90
20141;DHT22;10231;47.702;9.826;2022-09-27T09:33:54;9.10;99.90
20141;DHT22;10231;47.702;9.826;2022-09-27T09:36:27;9.20;99.90
20141;DHT22;10231;47.702;9.826;2022-09-27T09:39:02;9.30;99.90
20141;DHT22;10231;47.702;9.826;2022-09-27T09:41:44;9.30;99.90
20141;DHT22;10231;47.702;9.826;2022-09-27T09:46:50;9.30;99.90
20141;DHT22;10231;47.702;9.826;2022-09-27T09:49:22;9.10;99.90
20141;DHT22;10231;47.702;9.826;2022-09-27T09:52:06;9.10;99.90
20141;DHT22;10231;47.702;9.826;2022-09-27T09:54:45;9.10;99.90
20141;DHT22;10231;47.702;9.826;2022-09-27T09:57:15;9.10;99.90
20141;DHT22;10231;47.702;9.826;2022-09-27T10:04:46;8.50;99.90
20141;DHT22;10231;47.702;9.826;2022-09-27T10:07:13;8.40;99.90
20141;DHT22;10231;47.702;9.826;2022-09-27T10:09:39;8.40;99.90
20141;DHT22;10231;47.702;9.826;2022-09-27T10:12:05;8.60;99.90
20141;DHT22;10231;47.702;9.826;2022-09-27T10:14:31;8.60;99.90
20141;DHT22;10231;47.702;9.826;2022-09-27T10:17:00;8.80;99.90
20141;DHT22;10231;47.702;9.826;2022-09-27T10:19:29;8.80;99.90
20141;DHT22;10231;47.702;9.826;2022-09-27T10:24:58;9.00;99.90
20141;DHT22;10231;47.702;9.826;2022-09-27T10:27:26;9.10;99.90
20141;DHT22;10231;47.702;9.826;2022-09-27T10:29:58;9.30;99.90
20141;DHT22;10231;47.702;9.826;2022-09-27T10:32:27;9.30;99.90
20141;DHT22;10231;47.702;9.826;2022-09-27T10:38:26;9.60;99.90
20141;DHT22;10231;47.702;9.826;2022-09-27T10:40:54;9.60;99.90
20141;DHT22;10231;47.702;9.826;2022-09-27T10:43:32;9.70;99.90
20141;DHT22;10231;47.702;9.826;2022-09-27T10:46:20;9.70;99.90
20141;DHT22;10231;47.702;9.826;2022-09-27T10:49:12;9.80;99.90
20141;DHT22;10231;47.702;9.826;2022-09-27T10:51:42;9.90;99.90
20141;DHT22;10231;47.702;9.826;2022-09-27T10:54:23;9.90;99.90
20141;DHT22;10231;47.702;9.826;2022-09-27T10:57:18;9.90;99.90
20141;DHT22;10231;47.702;9.826;2022-09-27T10:59:53;10.00;99.90
20141;DHT22;10231;47.702;9.826;2022-09-27T11:07:28;10.30;99.90
20141;DHT22;10231;47.702;9.826;2022-09-27T11:09:56;10.30;99.90
20141;DHT22;10231;47.702;9.826;2022-09-27T11:12:28;10.30;99.90
20141;DHT22;10231;47.702;9.826;2022-09-27T11:15:02;10.50;99.90
20141;DHT22;10231;47.702;9.826;2022-09-27T11:17:45;10.50;99.90
20141;DHT22;10231;47.702;9.826;2022-09-27T11:34:00;10.10;99.90
20141;DHT22;10231;47.702;9.826;2022-09-27T11:50:59;10.00;99.90
20141;DHT22;10231;47.702;9.826;2022-09-27T11:53:51;10.10;99.90
20141;DHT22;10231;47.702;9.826;2022-09-27T11:59:32;9.90;99.90
20141;DHT22;10231;47.702;9.826;2022-09-27T12:10:52;8.80;99.90
20141;DHT22;10231;47.702;9.826;2022-09-27T12:13:33;8.80;99.90
20141;DHT22;10231;47.702;9.826;2022-09-27T12:16:01;8.80;99.90
20141;DHT22;10231;47.702;9.826;2022-09-27T12:18:31;8.80;99.90
20141;DHT22;10231;47.702;9.826;2022-09-27T12:21:02;8.70;99.90
20141;DHT22;10231;47.702;9.826;2022-09-27T12:24:01;8.60;99.90
20141;DHT22;10231;47.702;9.826;2022-09-27T12:28:57;8.40;99.90
20141;DHT22;10231;47.702;9.826;2022-09-27T12:34:16;8.70;99.90
20141;DHT22;10231;47.702;9.826;2022-09-27T12:36:50;8.70;99.90
20141;DHT22;10231;47.702;9.826;2022-09-27T12:39:23;8.80;99.90
20141;DHT22;10231;47.702;9.826;2022-09-27T12:42:01;8.80;99.90
20141;DHT22;10231;47.702;9.826;2022-09-27T12:44:37;8.90;99.90
20141;DHT22;10231;47.702;9.826;2022-09-27T12:47:26;9.00;99.90
20141;DHT22;10231;47.702;9.826;2022-09-27T12:52:32;9.20;99.90
20141;DHT22;10231;47.702;9.826;2022-09-27T12:55:18;9.40;99.90
20141;DHT22;10231;47.702;9.826;2022-09-27T13:12:06;10.50;99.90
20141;DHT22;10231;47.702;9.826;2022-09-27T13:14:41;10.50;99.90
20141;DHT22;10231;47.702;9.826;2022-09-27T13:17:30;10.60;99.90
20141;DHT22;10231;47.702;9.826;2022-09-27T13:19:55;10.70;99.90
20141;DHT22;10231;47.702;9.826;2022-09-27T13:24:53;10.70;99.90
20141;DHT22;10231;47.702;9.826;2022-09-27T13:29:48;10.50;99.90
20141;DHT22;10231;47.702;9.826;2022-09-27T13:32:23;10.60;99.90
20141;DHT22;10231;47.702;9.826;2022-09-27T13:34:54;10.60;99.90
20141;DHT22;10231;47.702;9.826;2022-09-27T13:37:43;10.50;99.90
20141;DHT22;10231;47.702;9.826;2022-09-27T13:42:54;10.30;99.90
20141;DHT22;10231;47.702;9.826;2022-09-27T13:45:58;10.30;99.90
20141;DHT22;10231;47.702;9.826;2022-09-27T13:53:41;10.20;99.90
20141;DHT22;10231;47.702;9.826;2022-09-27T14:04:50;10.40;99.90
20141;DHT22;10231;47.702;9.826;2022-09-27T14:07:25;10.40;99.90
20141;DHT22;10231;47.702;9.826;2022-09-27T14:09:54;10.40;99.90
20141;DHT22;10231;47.702;9.826;2022-09-27T14:12:26;10.30;99.90
20141;DHT22;10231;47.702;9.826;2022-09-27T14:14:54;10.40;99.90
20141;DHT22;10231;47.702;9.826;2022-09-27T14:17:22;10.30;99.90
20141;DHT22;10231;47.702;9.826;2022-09-27T14:19:48;10.30;99.90
20141;DHT22;10231;47.702;9.826;2022-09-27T14:22:17;10.40;99.90
20141;DHT22;10231;47.702;9.826;2022-09-27T14:24:48;10.40;99.90
20141;DHT22;10231;47.702;9.826;2022-09-27T14:27:18;10.50;99.90
20141;DHT22;10231;47.702;9.826;2022-09-27T14:32:15;10.50;99.90
20141;DHT22;10231;47.702;9.826;2022-09-27T14:34:41;10.50;99.90
20141;DHT22;10231;47.702;9.826;2022-09-27T14:37:33;10.60;99.90
20141;DHT22;10231;47.702;9.826;2022-09-27T14:40:03;10.60;99.90
20141;DHT22;10231;47.702;9.826;2022-09-27T14:42:33;10.70;99.90
20141;DHT22;10231;47.702;9.826;2022-09-27T14:45:06;10.70;99.90
20141;DHT22;10231;47.702;9.826;2022-09-27T14:47:44;10.70;99.90
20141;DHT22;10231;47.702;9.826;2022-09-27T14:50:24;10.70;99.90
20141;DHT22;10231;47.702;9.826;2022-09-27T14:52:51;10.70;99.90
20141;DHT22;10231;47.702;9.826;2022-09-27T14:55:25;10.70;99.90
20141;DHT22;10231;47.702;9.826;2022-09-27T14:57:59;10.70;99.90
20141;DHT22;10231;47.702;9.826;2022-09-27T15:00:30;10.70;99.90
20141;DHT22;10231;47.702;9.826;2022-09-27T15:02:59;10.70;99.90
20141;DHT22;10231;47.702;9.826;2022-09-27T15:05:30;10.60;99.90
20141;DHT22;10231;47.702;9.826;2022-09-27T15:07:58;10.60;99.90
20141;DHT22;10231;47.702;9.826;2022-09-27T15:10:28;10.60;99.90
20141;DHT22;10231;47.702;9.826;2022-09-27T15:12:56;10.60;99.90
20141;DHT22;10231;47.702;9.826;2022-09-27T15:15:26;10.70;99.90
20141;DHT22;10231;47.702;9.826;2022-09-27T15:17:54;10.70;99.90
20141;DHT22;10231;47.702;9.826;2022-09-27T15:22:57;10.60;99.90
20141;DHT22;10231;47.702;9.826;2022-09-27T15:25:24;10.60;99.90
20141;DHT22;10231;47.702;9.826;2022-09-27T15:27:56;10.60;99.90
20141;DHT22;10231;47.702;9.826;2022-09-27T15:30:28;10.50;99.90
20141;DHT22;10231;47.702;9.826;2022-09-27T15:32:57;10.50;99.90
20141;DHT22;10231;47.702;9.826;2022-09-27T15:35:32;10.50;99.90
20141;DHT22;10231;47.702;9.826;2022-09-27T15:38:27;10.40;99.90
20141;DHT22;10231;47.702;9.826;2022-09-27T15:43:30;10.40;99.90
20141;DHT22;10231;47.702;9.826;2022-09-27T15:45:58;10.40;99.90
20141;DHT22;10231;47.702;9.826;2022-09-27T15:48:30;10.30;99.90
20141;DHT22;10231;47.702;9.826;2022-09-27T15:50:56;10.20;99.90
20141;DHT22;10231;47.702;9.826;2022-09-27T15:56:01;10.00;99.90
20141;DHT22;10231;47.702;9.826;2022-09-27T15:58:28;9.80;99.90
20141;DHT22;10231;47.702;9.826;2022-09-27T16:00:59;9.80;99.90
20141;DHT22;10231;47.702;9.826;2022-09-27T16:03:30;9.70;99.90
20141;DHT22;10231;47.702;9.826;2022-09-27T16:05:56;9.70;99.90
20141;DHT22;10231;47.702;9.826;2022-09-27T16:08:26;9.60;99.90
20141;DHT22;10231;47.702;9.826;2022-09-27T16:10:54;9.50;99.90
20141;DHT22;10231;47.702;9.826;2022-09-27T16:13:21;9.60;99.90
20141;DHT22;10231;47.702;9.826;2022-09-27T16:15:47;9.60;99.90
20141;DHT22;10231;47.702;9.826;2022-09-27T16:18:13;9.60;99.90
20141;DHT22;10231;47.702;9.826;2022-09-27T16:20:39;9.60;99.90
20141;DHT22;10231;47.702;9.826;2022-09-27T16:23:05;9.50;99.90
20141;DHT22;10231;47.702;9.826;2022-09-27T16:25:31;9.50;99.90
20141;DHT22;10231;47.702;9.826;2022-09-27T16:27:58;9.50;99.90
20141;DHT22;10231;47.702;9.826;2022-09-27T16:30:24;9.50;99.90
20141;DHT22;10231;47.702;9.826;2022-09-27T16:32:49;9.50;99.90
20141;DHT22;10231;47.702;9.826;2022-09-27T16:35:17;9.40;99.90
20141;DHT22;10231;47.702;9.826;2022-09-27T16:37:43;9.40;99.90
20141;DHT22;10231;47.702;9.826;2022-09-27T16:40:09;9.40;99.90
20141;DHT22;10231;47.702;9.826;2022-09-27T16:42:36;9.40;99.90
20141;DHT22;10231;47.702;9.826;2022-09-27T16:45:03;9.40;99.90
20141;DHT22;10231;47.702;9.826;2022-09-27T16:47:30;9.30;99.90
20141;DHT22;10231;47.702;9.826;2022-09-27T16:49:55;9.30;99.90
20141;DHT22;10231;47.702;9.826;2022-09-27T16:52:40;9.30;99.90
20141;DHT22;10231;47.702;9.826;2022-09-27T16:55:06;9.30;99.90
20141;DHT22;10231;47.702;9.826;2022-09-27T16:57:32;9.30;99.90
20141;DHT22;10231;47.702;9.826;2022-09-27T16:59:59;9.30;99.90
20141;DHT22;10231;47.702;9.826;2022-09-27T17:02:26;9.20;99.90
20141;DHT22;10231;47.702;9.826;2022-09-27T17:04:52;9.20;99.90
20141;DHT22;10231;47.702;9.826;2022-09-27T17:07:18;9.20;99.90
20141;DHT22;10231;47.702;9.826;2022-09-27T17:09:44;9.10;99.90
20141;DHT22;10231;47.702;9.826;2022-09-27T17:12:10;9.20;99.90
20141;DHT22;10231;47.702;9.826;2022-09-27T17:14:35;9.00;99.90
20141;DHT22;10231;47.702;9.826;2022-09-27T17:17:01;9.00;99.90
20141;DHT22;10231;47.702;9.826;2022-09-27T17:19:27;9.00;99.90
20141;DHT22;10231;47.702;9.826;2022-09-27T17:21:52;8.90;99.90
20141;DHT22;10231;47.702;9.826;2022-09-27T17:24:20;8.90;99.90
20141;DHT22;10231;47.702;9.826;2022-09-27T17:26:46;9.00;99.90
20141;DHT22;10231;47.702;9.826;2022-09-27T17:29:12;9.00;99.90
20141;DHT22;10231;47.702;9.826;2022-09-27T17:31:39;9.00;99.90
20141;DHT22;10231;47.702;9.826;2022-09-27T17:34:05;9.00;99.90
20141;DHT22;10231;47.702;9.826;2022-09-27T17:36:32;8.90;99.90
20141;DHT22;10231;47.702;9.826;2022-09-27T17:39:00;9.00;99.90
20141;DHT22;10231;47.702;9.826;2022-09-27T17:41:27;8.90;99.90
20141;DHT22;10231;47.702;9.826;2022-09-27T17:43:55;8.90;99.90
20141;DHT22;10231;47.702;9.826;2022-09-27T17:46:24;8.90;99.90
20141;DHT22;10231;47.702;9.826;2022-09-27T17:48:50;9.00;99.90
20141;DHT22;10231;47.702;9.826;2022-09-27T17:51:36;8.90;99.90
20141;DHT22;10231;47.702;9.826;2022-09-27T17:54:03;9.00;99.90
20141;DHT22;10231;47.702;9.826;2022-09-27T17:56:29;9.00;99.90
20141;DHT22;10231;47.702;9.826;2022-09-27T17:58:57;9.00;99.90
20141;DHT22;10231;47.702;9.826;2022-09-27T18:01:24;9.00;99.90
20141;DHT22;10231;47.702;9.826;2022-09-27T18:03:57;9.00;99.90
20141;DHT22;10231;47.702;9.826;2022-09-27T18:06:24;9.00;99.90
20141;DHT22;10231;47.702;9.826;2022-09-27T18:08:51;8.90;99.90
20141;DHT22;10231;47.702;9.826;2022-09-27T18:11:19;8.90;99.90
20141;DHT22;10231;47.702;9.826;2022-09-27T18:13:57;8.90;99.90
20141;DHT22;10231;47.702;9.826;2022-09-27T18:16:27;8.90;99.90
20141;DHT22;10231;47.702;9.826;2022-09-27T18:19:03;8.90;99.90
20141;DHT22;10231;47.702;9.826;2022-09-27T18:21:29;8.90;99.90
20141;DHT22;10231;47.702;9.826;2022-09-27T18:23:56;8.90;99.90
20141;DHT22;10231;47.702;9.826;2022-09-27T18:26:24;9.00;99.90
20141;DHT22;10231;47.702;9.826;2022-09-27T18:28:53;9.00;99.90
20141;DHT22;10231;47.702;9.826;2022-09-27T18:31:21;8.90;99.90
20141;DHT22;10231;47.702;9.826;2022-09-27T18:33:48;8.90;99.90
20141;DHT22;10231;47.702;9.826;2022-09-27T18:36:19;8.90;99.90
20141;DHT22;10231;47.702;9.826;2022-09-27T18:38:50;8.90;99.90
20141;DHT22;10231;47.702;9.826;2022-09-27T18:41:17;9.00;99.90
20141;DHT22;10231;47.702;9.826;2022-09-27T18:43:44;8.90;99.90
20141;DHT22;10231;47.702;9.826;2022-09-27T18:46:15;8.90;99.90
20141;DHT22;10231;47.702;9.826;2022-09-27T18:48:43;8.90;99.90